Latest Weather Observations for Maria Island

IDT60801

Issued at 5:51 pm EST Monday 10 August 2020 (issued every 10 minutes, with the page automatically refreshed every 10 minutes)

About weather observations | Map of weather stations | Latest weather observations for TAS | Other Formats
Station Details ID: 092124 Name: MARIA ISLAND (POINT LESUEUR) Lat: -42.66 Lon: 148.02 Height: 28.0 m
Data from the previous 72 hours. | See also: Recent months at Maria Island
Date/Time
EST
Temp
°C
App
Temp
°C
Dew
Point
°C
Rel
Hum
%
Delta-T
°C
Wind Press
QNH
hPa
Press
MSL
hPa
Rain since
9am
mm
Dir  Spd
km/h
Gust
km/h
Spd
kts
Gust
kts
10/05:30pm 9.3 5.4 5.5 77 1.7 N 15 19 8 10 1020.4 1020.4 0.0
10/05:00pm 9.5 5.9 5.1 74 2.0 N 13 17 7 9 1020.4 1020.4 0.0
10/04:30pm 9.8 5.8 5.0 72 2.2 N 15 17 8 9 1020.5 1020.5 0.0
10/04:00pm 9.9 5.6 5.1 72 2.2 N 17 19 9 10 1020.5 1020.5 0.0
10/03:30pm 10.1 5.8 5.3 72 2.2 N 17 20 9 11 1020.5 1020.5 0.0
10/03:00pm 10.2 5.6 5.6 73 2.1 N 19 20 10 11 1020.4 1020.4 0.0
10/02:30pm 10.1 6.2 5.5 73 2.1 N 15 17 8 9 1020.5 1020.5 0.0
10/02:00pm 10.2 6.0 5.8 74 2.0 N 17 19 9 10 1020.8 1020.8 0.0
10/01:30pm 10.3 6.6 6.1 75 1.9 N 15 19 8 10 1021.2 1021.2 0.0
10/01:00pm 10.1 6.0 6.3 77 1.8 N 17 20 9 11 1021.5 1021.5 0.0
10/12:30pm 9.6 6.2 5.8 77 1.7 N 13 15 7 8 1022.0 1022.1 0.0
10/12:00pm 9.0 6.9 5.7 80 1.5 N 6 7 3 4 1022.6 1022.7 0.0
10/11:30am 8.6 7.0 6.4 86 1.0 NNE 4 7 2 4 1023.2 1023.3 0.0
10/11:00am 7.9 5.9 6.4 90 0.7 N 6 7 3 4 1023.5 1023.6 0.0
10/10:30am 7.2 5.5 6.0 92 0.5 NNW 4 7 2 4 1023.6 1023.7 0.0
10/10:00am 6.9 5.5 5.7 92 0.5 WNW 2 6 1 3 1023.9 1024.0 0.0
10/09:30am 6.7 4.6 5.7 93 0.4 SW 6 9 3 5 1023.9 1024.0 0.0
10/09:00am 6.7 4.4 5.8 94 0.4 SSW 7 9 4 5 1024.0 1024.1 0.0
10/08:30am 6.0 4.1 5.1 94 0.4 W 4 6 2 3 1023.9 1024.0 0.0
10/08:00am 5.2 2.6 4.2 93 0.4 WNW 7 9 4 5 1023.7 1023.8 0.0
10/07:30am 5.7 3.4 4.7 93 0.4 W 6 7 3 4 1023.6 1023.7 0.0
10/07:00am 5.5 2.6 4.5 93 0.4 W 9 11 5 6 1023.3 1023.4 0.0
10/06:30am 5.3 2.3 4.3 93 0.4 W 9 15 5 8 1023.1 1023.2 0.0
10/06:00am 5.4 2.0 4.2 92 0.5 W 11 13 6 7 1022.9 1023.0 0.0
10/05:30am 5.2 1.0 3.9 91 0.5 W 15 17 8 9 1022.8 1022.9 0.0
10/05:00am 5.6 3.0 4.2 91 0.6 WNW 7 9 4 5 1022.8 1022.9 0.0
10/04:30am 5.6 2.5 3.6 87 0.8 W 9 13 5 7 1022.8 1022.9 0.0
10/04:00am 7.0 3.0 4.8 86 1.0 SSW 15 20 8 11 1022.6 1022.7 0.0
10/03:30am 7.3 3.0 5.4 88 0.8 SSW 17 20 9 11 1022.7 1022.8 0.0
10/03:00am 7.3 3.1 5.6 89 0.8 SSW 17 20 9 11 1022.7 1022.8 0.0
10/02:30am 6.9 5.1 5.2 89 0.8 WSW 4 6 2 3 1022.9 1023.0 0.0
10/02:00am 6.7 5.6 4.9 88 0.8 CALM 0 0 0 0 1022.9 1023.0 0.0
10/01:30am 7.2 6.1 4.9 85 1.0 CALM 0 0 0 0 1023.0 1023.1 0.0
10/01:00am 7.4 5.5 5.0 85 1.1 SSW 4 6 2 3 1022.9 1023.0 0.0
10/12:30am 7.3 4.5 5.0 85 1.0 SW 9 11 5 6 1022.9 1023.0 0.0
10/12:00am 7.6 4.9 5.6 87 0.9 WSW 9 13 5 7 1022.9 1023.0 0.0
 
Date/Time
EST
Temp
°C
App
Temp
°C
Dew
Point
°C
Rel
Hum
%
Delta-T
°C
Wind Press
QNH
hPa
Press
MSL
hPa
Rain since
9am
mm
Dir  Spd
km/h
Gust
km/h
Spd
kts
Gust
kts
09/11:30pm 7.5 4.8 5.5 87 0.9 W 9 13 5 7 1022.7 1022.8 0.0
09/11:00pm 8.0 5.9 5.8 86 1.0 W 6 9 3 5 1022.7 1022.8 0.0
09/10:30pm 7.9 5.8 6.5 91 0.6 W 7 11 4 6 1023.2 1023.3 0.0
09/10:00pm 7.3 4.3 6.2 93 0.5 W 11 11 6 6 1023.2 1023.3 0.0
09/09:30pm 7.1 4.5 6.0 93 0.5 WNW 9 11 5 6 1023.3 1023.4 0.0
09/09:00pm 7.0 4.7 5.9 93 0.5 W 7 9 4 5 1023.3 1023.4 0.0
09/08:30pm 7.1 4.8 5.9 92 0.5 WNW 7 9 4 5 1023.3 1023.4 0.0
09/08:00pm 7.4 4.8 6.2 92 0.5 WSW 9 9 5 5 1023.4 1023.5 0.0
09/07:30pm 6.9 4.5 5.4 90 0.7 W 7 9 4 5 1023.2 1023.3 0.0
09/07:00pm 7.5 6.4 5.3 86 1.0 CALM 0 6 0 3 1023.2 1023.3 0.0
09/06:30pm 7.6 6.1 5.2 85 1.1 SE 2 4 1 2 1023.2 1023.3 0.0
09/06:00pm 7.9 5.7 5.4 84 1.1 SE 6 7 3 4 1023.0 1023.1 0.0
09/05:30pm 7.9 5.1 5.0 82 1.3 ESE 9 11 5 6 1022.8 1022.9 0.0
09/05:00pm 8.3 4.7 5.2 81 1.4 ESE 13 17 7 9 1022.7 1022.8 0.0
09/04:30pm 9.1 5.7 5.7 79 1.5 S 13 17 7 9 1022.6 1022.7 0.0
09/04:00pm 9.2 5.0 5.6 78 1.6 S 17 20 9 11 1022.6 1022.7 0.0
09/03:30pm 9.4 5.3 6.1 80 1.5 S 17 20 9 11 1022.5 1022.6 0.0
09/03:00pm 9.5 5.4 6.2 80 1.5 S 17 19 9 10 1022.2 1022.3 0.0
09/02:30pm 9.3 5.2 6.0 80 1.5 SSW 17 20 9 11 1022.0 1022.1 0.0
09/02:00pm 9.1 4.6 6.0 81 1.4 SSW 19 20 10 11 1022.2 1022.3 0.0
09/01:30pm 9.0 4.9 6.1 82 1.3 SSW 17 20 9 11 1022.3 1022.4 0.0
09/01:00pm 8.9 4.2 6.2 83 1.2 SSW 20 24 11 13 1022.6 1022.7 0.0
09/12:30pm 8.8 5.8 6.1 83 1.2 SSW 11 15 6 8 1022.8 1022.9 0.0
09/12:00pm 8.5 5.8 5.8 83 1.2 S 9 13 5 7 1023.4 1023.5 0.0
09/11:30am 8.4 5.8 5.9 84 1.1 S 9 13 5 7 1023.8 1023.9 0.0
09/11:00am 8.1 4.6 5.6 84 1.1 S 13 15 7 8 1024.1 1024.2 0.0
09/10:30am 8.0 3.8 5.6 85 1.1 S 17 20 9 11 1024.3 1024.4 0.0
09/10:00am 7.6 3.3 5.4 86 1.0 S 17 20 9 11 1024.4 1024.5 0.0
09/09:30am 7.5 2.9 5.8 89 0.8 SSW 19 24 10 13 1024.5 1024.6 0.0
09/09:00am 7.2 2.7 6.0 92 0.5 SSW 19 22 10 12 1024.4 1024.5 0.0
09/08:30am 6.6 1.8 5.7 94 0.4 SSW 20 24 11 13 1024.4 1024.5 0.0
09/08:00am 6.5 2.3 5.9 96 0.3 SSW 17 20 9 11 1024.2 1024.3 0.0
09/07:30am 5.9 3.2 5.5 97 0.2 SW 9 11 5 6 1024.1 1024.2 0.0
09/07:00am 6.2 2.4 5.6 96 0.3 SSW 15 17 8 9 1024.0 1024.1 0.0
09/06:30am 6.4 3.0 6.1 98 0.1 S 13 17 7 9 1024.0 1024.1 0.0
09/06:00am 5.6 4.2 5.3 98 0.1 NW 2 6 1 3 1023.8 1023.9 0.0
09/05:30am 6.2 4.9 5.9 98 0.1 NNE 2 6 1 3 1023.6 1023.7 0.0
09/05:00am 5.9 4.5 5.6 98 0.1 WNW 2 4 1 2 1023.6 1023.7 0.0
09/04:30am 5.3 2.8 5.0 98 0.1 NNW 7 9 4 5 1023.5 1023.6 0.0
09/04:00am 5.9 4.5 5.6 98 0.1 NW 2 4 1 2 1023.3 1023.4 0.0
09/03:30am 5.8 4.0 5.4 97 0.2 WNW 4 4 2 2 1023.3 1023.4 0.0
09/03:00am 6.3 5.0 5.9 97 0.2 NNW 2 4 1 2 1023.4 1023.5 0.0
09/02:30am 6.0 4.2 5.6 97 0.2 W 4 6 2 3 1023.6 1023.7 0.0
09/02:00am 5.9 4.1 5.5 97 0.2 NNE 4 6 2 3 1023.6 1023.7 0.0
09/01:30am 6.0 5.0 5.4 96 0.3 CALM 0 0 0 0 1023.7 1023.8 0.0
09/01:00am 6.4 5.4 5.8 96 0.3 CALM 0 0 0 0 1023.8 1023.9 0.0
09/12:30am 5.7 4.5 4.8 94 0.4 CALM 0 0 0 0 1023.9 1024.0 0.0
09/12:00am 6.1 5.0 5.2 94 0.4 CALM 0 0 0 0 1023.9 1024.0 0.0
 
Date/Time
EST
Temp
°C
App
Temp
°C
Dew
Point
°C
Rel
Hum
%
Delta-T
°C
Wind Press
QNH
hPa
Press
MSL
hPa
Rain since
9am
mm
Dir  Spd
km/h
Gust
km/h
Spd
kts
Gust
kts
08/11:30pm 6.4 5.4 5.4 93 0.4 CALM 0 0 0 0 1023.9 1024.0 0.0
08/11:00pm 6.2 4.3 5.0 92 0.5 N 4 4 2 2 1024.0 1024.1 0.0
08/10:30pm 6.7 4.5 5.3 91 0.6 WNW 6 6 3 3 1023.9 1024.0 0.0
08/10:00pm 6.7 4.5 5.2 90 0.7 NW 6 6 3 3 1024.0 1024.1 0.0
08/09:30pm 7.0 4.8 5.5 90 0.7 NW 6 7 3 4 1024.1 1024.2 0.0
08/09:00pm 6.7 4.4 5.0 89 0.7 NW 6 7 3 4 1024.0 1024.1 0.0
08/08:30pm 7.0 4.7 5.0 87 0.9 NW 6 6 3 3 1023.9 1024.0 0.0
08/08:00pm 7.2 4.9 5.0 86 1.0 WNW 6 7 3 4 1024.0 1024.1 0.0
08/07:30pm 7.8 5.9 5.1 83 1.2 W 4 6 2 3 1024.0 1024.1 0.0
08/07:00pm 8.1 6.1 4.5 78 1.6 SSE 4 6 2 3 1023.9 1024.0 0.0
08/06:30pm 7.8 5.2 4.2 78 1.6 ESE 7 9 4 5 1023.8 1023.9 0.0
08/06:00pm 8.8 6.2 4.4 74 1.9 E 7 7 4 4 1023.6 1023.7 0.0
08/05:30pm 9.0 6.8 3.4 68 2.4 NE 4 6 2 3 1023.5 1023.6 0.0
08/05:00pm 9.5 7.1 4.3 70 2.3 NE 6 7 3 4 1023.3 1023.4 0.0
08/04:30pm 10.1 7.0 3.8 65 2.8 NNE 9 11 5 6 1023.3 1023.4 0.0
08/04:00pm 10.3 7.0 4.7 68 2.5 NNE 11 13 6 7 1023.3 1023.4 0.0
08/03:30pm 10.6 6.5 4.3 65 2.8 N 15 19 8 10 1023.4 1023.5 0.0
08/03:00pm 10.6 6.1 4.3 65 2.8 N 17 19 9 10 1023.3 1023.4 0.0
08/02:30pm 10.9 6.9 4.8 66 2.8 N 15 15 8 8 1023.5 1023.6 0.0
08/02:00pm 11.4 7.6 5.7 68 2.6 N 15 17 8 9 1023.6 1023.7 0.0
08/01:30pm 11.1 7.8 4.8 65 2.9 NNW 11 13 6 7 1023.8 1023.9 0.0
08/01:00pm 10.8 8.2 4.0 63 3.0 NW 7 9 4 5 1024.3 1024.4 0.0
08/12:30pm 10.5 8.2 4.9 68 2.5 WSW 6 6 3 3 1024.7 1024.8 0.0
08/12:00pm 10.2 7.7 4.6 68 2.5 SW 7 9 4 5 1024.9 1025.0 0.0
08/11:30am 10.0 7.5 4.6 69 2.4 SSW 7 9 4 5 1025.3 1025.4 0.0
08/11:00am 10.1 7.2 4.7 69 2.4 SSW 9 11 5 6 1025.6 1025.7 0.0
08/10:30am 10.3 7.9 5.3 71 2.3 S 7 11 4 6 1025.6 1025.7 0.0
08/10:00am 9.6 7.6 4.4 70 2.3 WSW 4 6 2 3 1025.7 1025.8 0.0
08/09:30am 9.4 6.4 4.2 70 2.3 SW 9 13 5 7 1025.7 1025.8 0.0
08/09:00am 9.1 4.7 4.5 73 2.0 SSW 17 19 9 10 1025.8 1025.9 0.0
08/08:30am 8.9 4.5 4.5 74 1.9 SSW 17 20 9 11 1025.7 1025.8 0.0
08/08:00am 8.9 4.1 4.5 74 1.9 SSW 19 20 10 11 1025.4 1025.5 0.0
08/07:30am 8.6 4.2 4.8 77 1.7 S 17 19 9 10 1025.2 1025.3 0.0
08/07:00am 8.6 4.3 5.2 79 1.5 SSW 17 20 9 11 1025.3 1025.4 0.0
08/06:30am 8.9 4.5 4.7 75 1.9 SSW 17 19 9 10 1025.4 1025.5 0.0
08/06:00am 8.6 5.8 5.0 78 1.6 SW 9 11 5 6 1025.4 1025.5 0.0
08/05:30am 8.6 5.8 5.2 79 1.5 WSW 9 11 5 6 1025.4 1025.5 0.0
08/05:00am 8.7 5.8 4.7 76 1.8 SW 9 13 5 7 1025.4 1025.5 0.0
08/04:30am 8.6 5.8 5.0 78 1.6 SW 9 11 5 6 1025.3 1025.4 0.0
08/04:00am 8.7 5.8 4.7 76 1.8 WSW 9 11 5 6 1025.5 1025.6 0.0
08/03:30am 8.8 5.9 4.6 75 1.9 SW 9 9 5 5 1025.3 1025.4 0.0
08/03:00am 8.7 6.3 4.3 74 1.9 WSW 6 9 3 5 1025.6 1025.7 0.0
08/02:30am 9.0 5.9 3.6 69 2.3 S 9 11 5 6 1025.8 1025.9 0.0
08/02:00am 9.2 5.6 3.2 66 2.6 SSE 11 15 6 8 1025.9 1026.0 0.0
08/01:30am 9.2 6.6 4.0 70 2.3 S 7 9 4 5 1026.0 1026.1 0.0
08/01:00am 9.2 5.7 3.6 68 2.4 SE 11 15 6 8 1026.0 1026.1 0.0
08/12:30am 9.2 6.4 3.2 66 2.6 SE 7 11 4 6 1026.0 1026.1 0.0
08/12:00am 9.2 6.1 3.4 67 2.5 SSE 9 13 5 7 1026.2 1026.3 0.0
 
Date/Time
EST
Temp
°C
App
Temp
°C
Dew
Point
°C
Rel
Hum
%
Delta-T
°C
Wind Press
QNH
hPa
Press
MSL
hPa
Rain since
9am
mm
Dir  Spd
km/h
Gust
km/h
Spd
kts
Gust
kts
07/11:30pm 9.2 6.1 3.4 67 2.5 SE 9 11 5 6 1026.3 1026.4 0.0
07/11:00pm 9.2 6.4 3.4 67 2.5 ESE 7 9 4 5 1026.5 1026.6 0.0
07/10:30pm 9.3 5.8 3.5 67 2.5 SE 11 13 6 7 1026.6 1026.7 0.0
07/10:00pm 9.4 5.5 3.6 67 2.5 SE 13 19 7 10 1026.8 1026.9 0.0
07/09:30pm 9.3 5.9 4.1 70 2.3 SSE 11 13 6 7 1026.8 1026.9 0.0
07/09:00pm 9.3 5.5 3.7 68 2.4 SSE 13 17 7 9 1026.8 1026.9 0.0
07/08:30pm 9.1 4.8 3.5 68 2.4 SSE 15 17 8 9 1026.8 1026.9 0.0
07/08:00pm 9.2 4.6 3.8 69 2.3 SSE 17 20 9 11 1026.8 1026.9 0.0
07/07:30pm 9.3 5.1 5.7 78 1.6 SSW 17 20 9 11 1026.6 1026.7 0.0
07/07:00pm 9.3 5.9 5.9 79 1.5 SSW 13 15 7 8 1026.6 1026.7 0.0
07/06:30pm 9.4 5.2 5.8 78 1.6 S 17 20 9 11 1026.3 1026.4 0.0
07/06:00pm 9.2 4.7 5.9 80 1.5 S 19 22 10 12 1025.8 1025.9 0.0

Other formats

Comma delimited format used in spreadsheet applications
http://www.bom.gov.au/fwo/IDT60801/IDT60801.95988.axf

JavaScript Object Notation format (JSON) in row-major order
http://www.bom.gov.au/fwo/IDT60801/IDT60801.95988.json

Data quality

Most of these data are generated automatically and are frequently updated. Quality checks on data are not normally performed. It is possible for incorrect values to appear. Refer to information at About Latest Weather Observations and please check the disclaimer before using these data.